createdAt,value
2022-09-20T00:01:33.878Z,98638.97
2022-09-20T00:04:05.778Z,98633.00
2022-09-20T00:06:33.223Z,98637.81
2022-09-20T00:09:01.541Z,98643.13
2022-09-20T00:11:32.400Z,98639.53
2022-09-20T00:14:01.741Z,98634.66
2022-09-20T00:16:32.288Z,98642.25
2022-09-20T00:19:02.944Z,98658.78
2022-09-20T00:21:32.262Z,98657.22
2022-09-20T00:23:59.743Z,98650.56
2022-09-20T00:26:28.037Z,98661.72
2022-09-20T00:28:56.105Z,98661.47
2022-09-20T00:31:23.274Z,98668.97
2022-09-20T00:34:09.047Z,98672.38
2022-09-20T00:36:35.981Z,98680.16
2022-09-20T00:39:04.264Z,98690.94
2022-09-20T00:41:32.672Z,98686.69
2022-09-20T00:44:00.696Z,98702.31
2022-09-20T00:46:43.349Z,98708.44
2022-09-20T00:49:18.990Z,98708.88
2022-09-20T00:51:48.505Z,98716.94
2022-09-20T00:54:20.533Z,98705.66
2022-09-20T00:56:48.905Z,98713.41
2022-09-20T00:59:16.113Z,98711.16
2022-09-20T01:01:46.685Z,98706.09
2022-09-20T01:04:16.038Z,98716.03
2022-09-20T01:06:46.351Z,98716.94
2022-09-20T01:09:13.274Z,98727.03
2022-09-20T01:11:41.511Z,98717.66
2022-09-20T01:14:09.340Z,98720.09
2022-09-20T01:16:37.791Z,98734.47
2022-09-20T01:19:16.445Z,98741.53
2022-09-20T01:21:46.738Z,98738.91
2022-09-20T01:24:16.641Z,98735.81
2022-09-20T01:27:13.431Z,98736.47
2022-09-20T01:30:09.339Z,98754.16
2022-09-20T01:33:02.884Z,98759.13
2022-09-20T01:35:33.699Z,98760.75
2022-09-20T01:38:09.685Z,98765.53
2022-09-20T01:40:56.987Z,98768.16
2022-09-20T01:43:56.251Z,98768.69
2022-09-20T01:46:44.131Z,98772.66
2022-09-20T01:49:40.106Z,98775.00
2022-09-20T01:52:15.963Z,98776.91
2022-09-20T01:55:01.265Z,98784.41
2022-09-20T01:57:53.461Z,98779.81
2022-09-20T02:00:31.220Z,98789.66
2022-09-20T02:03:13.240Z,98791.25
2022-09-20T02:06:13.802Z,98798.75
2022-09-20T02:09:14.786Z,98798.59
2022-09-20T02:12:02.916Z,98809.91
2022-09-20T02:14:41.866Z,98807.09
2022-09-20T02:17:18.295Z,98810.97
2022-09-20T02:20:15.853Z,98820.38
2022-09-20T02:22:51.717Z,98820.84
2022-09-20T02:25:37.306Z,98827.59
2022-09-20T02:28:23.456Z,98836.81
2022-09-20T02:31:08.583Z,98839.09
2022-09-20T02:34:14.626Z,98844.88
2022-09-20T02:36:54.426Z,98847.22
2022-09-20T02:39:30.345Z,98849.13
2022-09-20T02:42:25.889Z,98850.47
2022-09-20T02:45:07.314Z,98868.72
2022-09-20T02:47:43.321Z,98861.50
2022-09-20T02:50:31.943Z,98876.03
2022-09-20T02:53:16.753Z,98873.78
2022-09-20T02:56:08.235Z,98875.78
2022-09-20T02:59:01.113Z,98885.72
2022-09-20T03:01:49.509Z,98888.97
2022-09-20T03:04:38.100Z,98897.84
2022-09-20T03:07:30.575Z,98911.13
2022-09-20T03:10:12.411Z,98912.22
2022-09-20T03:12:57.575Z,98910.28
2022-09-20T03:16:05.121Z,98926.31
2022-09-20T03:18:53.733Z,98931.25
2022-09-20T03:21:51.041Z,98937.84
2022-09-20T03:24:44.156Z,98944.00
2022-09-20T03:27:28.670Z,98939.00
2022-09-20T03:30:25.184Z,98951.59
2022-09-20T03:33:11.942Z,98952.34
2022-09-20T03:35:59.847Z,98963.00
2022-09-20T03:39:17.545Z,98973.16
2022-09-20T03:42:13.919Z,98972.47
2022-09-20T03:45:18.644Z,98970.53
2022-09-20T03:48:23.227Z,98979.19
2022-09-20T03:50:58.400Z,98982.09
2022-09-20T03:53:57.887Z,98980.94
2022-09-20T03:56:52.539Z,98993.38
2022-09-20T03:59:44.378Z,98993.69
2022-09-20T04:02:37.750Z,99001.06
2022-09-20T04:05:14.243Z,98996.94
2022-09-20T04:07:49.883Z,99004.47
2022-09-20T04:10:53.376Z,99012.97
2022-09-20T04:13:47.913Z,99008.38
2022-09-20T04:16:43.185Z,99009.81
2022-09-20T04:19:35.367Z,99023.03
2022-09-20T04:22:02.591Z,99033.16
2022-09-20T04:24:48.441Z,99032.69
2022-09-20T04:27:44.612Z,99044.66
2022-09-20T04:30:24.389Z,99037.72
2022-09-20T04:33:14.264Z,99037.78
2022-09-20T04:36:06.874Z,99045.94
2022-09-20T04:38:35.855Z,99055.84
2022-09-20T04:41:09.132Z,99058.75
2022-09-20T04:43:51.294Z,99055.25
2022-09-20T04:46:24.480Z,99059.34
2022-09-20T04:48:51.468Z,99075.97
2022-09-20T04:51:47.959Z,99078.91
2022-09-20T04:54:51.625Z,99087.09
2022-09-20T04:58:08.230Z,99085.31
2022-09-20T05:01:02.872Z,99082.31
2022-09-20T05:03:51.518Z,99097.34
2022-09-20T05:06:24.386Z,99099.06
2022-09-20T05:09:17.629Z,99106.09
2022-09-20T05:12:10.239Z,99097.34
2022-09-20T05:14:41.092Z,99113.09
2022-09-20T05:17:31.182Z,99110.94
2022-09-20T05:20:25.866Z,99116.16
2022-09-20T05:23:03.783Z,99120.63
2022-09-20T05:25:49.565Z,99118.94
2022-09-20T05:28:16.612Z,99125.84
2022-09-20T05:30:55.933Z,99130.47
2022-09-20T05:33:39.767Z,99128.66
2022-09-20T05:36:31.183Z,99138.09
2022-09-20T05:39:12.488Z,99136.88
2022-09-20T05:41:39.405Z,99137.06
2022-09-20T05:44:18.493Z,99144.03
2022-09-20T05:47:18.463Z,99136.38
2022-09-20T05:50:13.115Z,99144.47
2022-09-20T05:52:58.764Z,99158.88
2022-09-20T05:55:34.515Z,99157.19
2022-09-20T05:58:13.417Z,99159.81
2022-09-20T06:00:53.278Z,99155.53
2022-09-20T06:03:38.688Z,99159.63
2022-09-20T06:06:32.560Z,99167.50
2022-09-20T06:09:05.929Z,99172.97
2022-09-20T06:12:07.364Z,99178.84
2022-09-20T06:14:50.945Z,99180.22
2022-09-20T06:17:43.952Z,99180.16
2022-09-20T06:20:32.409Z,99189.38
2022-09-20T06:23:03.381Z,99194.38
2022-09-20T06:25:47.841Z,99193.22
2022-09-20T06:28:20.236Z,99195.41
2022-09-20T06:30:52.276Z,99202.28
2022-09-20T06:33:25.514Z,99208.50
2022-09-20T06:36:24.449Z,99206.41
2022-09-20T06:39:25.409Z,99208.16
2022-09-20T06:41:52.970Z,99219.78
2022-09-20T06:44:19.878Z,99213.66
2022-09-20T06:46:46.845Z,99219.94
2022-09-20T06:49:13.689Z,99226.63
2022-09-20T06:51:41.523Z,99228.97
2022-09-20T06:54:17.281Z,99226.75
2022-09-20T06:56:46.810Z,99217.44
2022-09-20T06:59:15.286Z,99220.97
2022-09-20T07:01:43.387Z,99232.69
2022-09-20T07:04:10.382Z,99229.94
2022-09-20T07:06:37.458Z,99237.19
2022-09-20T07:09:05.687Z,99233.75
2022-09-20T07:11:35.151Z,99243.28
2022-09-20T07:14:02.716Z,99245.38
2022-09-20T07:16:29.757Z,99241.16
2022-09-20T07:18:56.994Z,99240.50
2022-09-20T07:21:24.560Z,99250.53
2022-09-20T07:23:53.982Z,99241.38
2022-09-20T07:26:28.605Z,99246.84
2022-09-20T07:28:56.932Z,99246.59
2022-09-20T07:31:25.806Z,99257.22
2022-09-20T07:33:52.824Z,99270.63
2022-09-20T07:36:20.252Z,99274.66
2022-09-20T07:38:53.232Z,99275.09
2022-09-20T07:41:20.699Z,99274.50
2022-09-20T07:43:47.780Z,99285.03
2022-09-20T07:46:14.741Z,99283.03
2022-09-20T07:48:42.113Z,99274.38
2022-09-20T07:51:12.797Z,99283.06
2022-09-20T07:53:40.504Z,99280.41
2022-09-20T07:56:11.985Z,99290.59
2022-09-20T07:58:39.499Z,99285.13
2022-09-20T08:01:09.924Z,99294.78
2022-09-20T08:03:37.384Z,99291.97
2022-09-20T08:06:10.705Z,99293.44
2022-09-20T08:08:40.726Z,99293.72
2022-09-20T08:11:19.302Z,99288.03
2022-09-20T08:14:06.329Z,99294.53
2022-09-20T08:16:41.986Z,99293.81
2022-09-20T08:19:09.554Z,99299.91
2022-09-20T08:21:38.271Z,99304.28
2022-09-20T08:24:05.333Z,99300.59
2022-09-20T08:26:32.488Z,99310.44
2022-09-20T08:29:00.238Z,99301.88
2022-09-20T08:31:32.493Z,99297.59
2022-09-20T08:34:03.082Z,99304.63
2022-09-20T08:36:36.098Z,99303.59
2022-09-20T08:42:03.008Z,99314.84
2022-09-20T08:44:37.021Z,99326.28
2022-09-20T08:47:11.011Z,99321.06
2022-09-20T08:49:38.293Z,99323.13
2022-09-20T08:52:10.385Z,99330.44
2022-09-20T08:54:37.638Z,99327.38
2022-09-20T08:57:11.214Z,99328.19
2022-09-20T08:59:38.395Z,99329.00
2022-09-20T09:02:16.245Z,99325.47
2022-09-20T09:04:46.711Z,99328.13
2022-09-20T09:07:16.471Z,99330.56
2022-09-20T09:09:46.825Z,99340.28
2022-09-20T09:12:19.754Z,99325.88
2022-09-20T09:14:51.679Z,99338.69
2022-09-20T09:17:27.227Z,99333.41
2022-09-20T09:20:00.275Z,99346.88
2022-09-20T09:22:40.200Z,99336.75
2022-09-20T09:25:32.338Z,99343.66
2022-09-20T09:28:12.874Z,99353.56
2022-09-20T09:30:42.603Z,99349.06
2022-09-20T09:33:32.247Z,99346.63
2022-09-20T09:36:15.147Z,99357.19
2022-09-20T09:38:47.235Z,99360.88
2022-09-20T09:41:34.433Z,99347.72
2022-09-20T09:44:02.578Z,99360.59
2022-09-20T09:46:33.381Z,99359.06
2022-09-20T09:49:11.721Z,99366.38
2022-09-20T09:51:42.535Z,99369.56
2022-09-20T09:54:17.841Z,99363.53
2022-09-20T09:56:50.117Z,99354.03
2022-09-20T09:59:40.286Z,99377.94
2022-09-20T10:02:31.794Z,99374.81
2022-09-20T10:05:01.468Z,99378.75
2022-09-20T10:07:41.503Z,99388.59
2022-09-20T10:10:32.559Z,99388.94
2022-09-20T10:13:14.589Z,99390.06
2022-09-20T10:15:54.476Z,99395.97
2022-09-20T10:19:06.555Z,99389.03
2022-09-20T10:21:41.469Z,99383.91
2022-09-20T10:24:40.476Z,99390.13
2022-09-20T10:27:07.275Z,99377.44
2022-09-20T10:29:43.280Z,99392.03
2022-09-20T10:32:15.256Z,99393.75
2022-09-20T10:35:04.581Z,99403.78
2022-09-20T10:37:56.802Z,99401.56
2022-09-20T10:40:52.558Z,99390.75
2022-09-20T10:43:36.807Z,99407.66
2022-09-20T10:46:33.036Z,99409.88
2022-09-20T10:49:35.714Z,99414.41
2022-09-20T10:52:21.421Z,99420.44
2022-09-20T10:55:11.002Z,99413.97
2022-09-20T10:57:46.837Z,99417.41
2022-09-20T11:00:25.844Z,99424.91
2022-09-20T11:03:20.711Z,99427.56
2022-09-20T11:06:31.365Z,99429.66
2022-09-20T11:09:02.121Z,99424.88
2022-09-20T11:11:40.490Z,99426.72
2022-09-20T11:14:16.478Z,99449.97
2022-09-20T11:16:51.145Z,99444.59
2022-09-20T11:19:18.626Z,99456.00
2022-09-20T11:22:03.143Z,99461.84
2022-09-20T11:24:38.744Z,99464.41
2022-09-20T11:27:18.826Z,99477.16
2022-09-20T11:30:19.936Z,99483.91
2022-09-20T11:32:50.354Z,99490.69
2022-09-20T11:35:35.199Z,99481.06
2022-09-20T11:38:28.420Z,99485.72
2022-09-20T11:41:01.649Z,99487.81
2022-09-20T11:43:31.519Z,99487.41
2022-09-20T11:46:03.676Z,99491.56
2022-09-20T11:48:38.836Z,99499.34
2022-09-20T11:51:05.720Z,99497.41
2022-09-20T11:53:51.289Z,99496.22
2022-09-20T11:56:22.334Z,99498.19
2022-09-20T11:58:52.568Z,99500.09
2022-09-20T12:01:28.440Z,99500.22
2022-09-20T12:04:21.043Z,99499.28
2022-09-20T12:06:47.960Z,99507.44
2022-09-20T12:09:32.515Z,99510.03
2022-09-20T12:12:13.593Z,99511.28
2022-09-20T12:14:41.732Z,99514.81
2022-09-20T12:17:46.694Z,99514.63
2022-09-20T12:20:35.229Z,99520.13
2022-09-20T12:23:40.945Z,99527.69
2022-09-20T12:26:32.061Z,99528.38
2022-09-20T12:29:02.364Z,99517.25
2022-09-20T12:31:32.533Z,99522.69
2022-09-20T12:34:05.463Z,99529.41
2022-09-20T12:36:38.349Z,99532.19
2022-09-20T12:39:17.748Z,99541.41
2022-09-20T12:41:54.446Z,99537.06
2022-09-20T12:44:57.041Z,99542.34
2022-09-20T12:47:27.749Z,99540.81
2022-09-20T12:50:15.681Z,99545.28
2022-09-20T12:52:56.316Z,99547.34
2022-09-20T12:55:41.348Z,99544.63
2022-09-20T12:58:14.420Z,99547.63
2022-09-20T13:00:49.221Z,99548.44
2022-09-20T13:03:20.455Z,99545.81
2022-09-20T13:05:52.727Z,99542.09
2022-09-20T13:08:23.625Z,99546.81
2022-09-20T13:11:21.528Z,99551.06
2022-09-20T13:14:18.942Z,99550.69
2022-09-20T13:16:59.142Z,99555.84
2022-09-20T13:19:46.674Z,99558.84
2022-09-20T13:22:22.791Z,99557.41
2022-09-20T13:24:55.167Z,99565.44
2022-09-20T13:27:30.191Z,99570.69
2022-09-20T13:30:28.462Z,99567.06
2022-09-20T13:32:55.566Z,99573.81
2022-09-20T13:35:24.783Z,99574.22
2022-09-20T13:37:51.701Z,99585.59
2022-09-20T13:40:20.504Z,99578.88
2022-09-20T13:42:50.270Z,99585.50
2022-09-20T13:45:19.401Z,99582.19
2022-09-20T13:47:51.925Z,99576.56
2022-09-20T13:50:23.852Z,99579.63
2022-09-20T13:52:54.433Z,99580.44
2022-09-20T13:55:22.494Z,99584.97
2022-09-20T13:57:49.419Z,99583.66
2022-09-20T14:00:16.907Z,99590.16
2022-09-20T14:02:44.111Z,99583.00
2022-09-20T14:05:19.366Z,99585.50
2022-09-20T14:07:48.447Z,99578.84
2022-09-20T14:10:28.850Z,99586.69
2022-09-20T14:12:57.345Z,99585.88
2022-09-20T14:15:25.424Z,99593.88
2022-09-20T14:17:53.535Z,99598.50
2022-09-20T14:20:20.523Z,99597.69
2022-09-20T14:22:47.641Z,99601.97
2022-09-20T14:25:14.473Z,99611.19
2022-09-20T14:27:41.484Z,99610.34
2022-09-20T14:30:29.862Z,99613.69
2022-09-20T14:32:58.377Z,99617.69
2022-09-20T14:35:27.079Z,99625.31
2022-09-20T14:37:59.418Z,99620.78
2022-09-20T14:40:32.265Z,99617.81
2022-09-20T14:43:07.495Z,99620.00
2022-09-20T14:45:38.952Z,99627.00
2022-09-20T14:48:11.339Z,99624.19
2022-09-20T14:50:45.446Z,99629.09
2022-09-20T14:53:14.909Z,99626.75
2022-09-20T14:55:55.538Z,99624.03
2022-09-20T14:58:26.290Z,99633.31
2022-09-20T15:01:07.126Z,99633.25
2022-09-20T15:03:43.215Z,99638.13
2022-09-20T15:06:11.700Z,99638.13
2022-09-20T15:08:42.716Z,99636.13
2022-09-20T15:11:19.291Z,99639.47
2022-09-20T15:13:46.390Z,99642.75
2022-09-20T15:16:17.724Z,99647.44
2022-09-20T15:18:45.241Z,99648.56
2022-09-20T15:21:12.379Z,99659.63
2022-09-20T15:23:40.391Z,99665.41
2022-09-20T15:26:08.987Z,99666.50
2022-09-20T15:28:36.264Z,99663.94
2022-09-20T15:31:03.291Z,99669.38
2022-09-20T15:33:32.343Z,99670.78
2022-09-20T15:36:02.059Z,99672.75
2022-09-20T15:38:29.319Z,99673.09
2022-09-20T15:40:56.192Z,99670.03
2022-09-20T15:43:27.169Z,99679.91
2022-09-20T15:45:57.204Z,99692.03
2022-09-20T15:48:27.308Z,99685.84
2022-09-20T15:51:02.080Z,99684.84
2022-09-20T15:53:31.844Z,99686.50
2022-09-20T15:56:02.815Z,99700.34
2022-09-20T15:58:35.440Z,99700.66
2022-09-20T16:01:08.465Z,99702.66
2022-09-20T16:03:36.405Z,99705.78
2022-09-20T16:06:06.477Z,99712.19
2022-09-20T16:08:35.658Z,99716.94
2022-09-20T16:11:02.790Z,99714.47
2022-09-20T16:13:29.831Z,99714.81
2022-09-20T16:16:01.724Z,99713.53
2022-09-20T16:18:47.987Z,99712.53
2022-09-20T16:21:17.169Z,99709.72
2022-09-20T16:23:49.527Z,99714.31
2022-09-20T16:26:16.837Z,99718.09
2022-09-20T16:28:47.492Z,99723.34
2022-09-20T16:31:33.073Z,99727.13
2022-09-20T16:34:04.242Z,99726.28
2022-09-20T16:36:32.205Z,99725.16
2022-09-20T16:38:59.883Z,99729.25
2022-09-20T16:41:28.751Z,99731.72
2022-09-20T16:43:56.241Z,99719.22
2022-09-20T16:46:27.495Z,99728.91
2022-09-20T16:48:56.686Z,99729.72
2022-09-20T16:51:26.130Z,99737.44
2022-09-20T16:53:55.042Z,99729.91
2022-09-20T16:56:26.703Z,99734.16
2022-09-20T16:58:54.470Z,99739.59
2022-09-20T17:01:22.792Z,99733.00
2022-09-20T17:03:49.778Z,99739.75
2022-09-20T17:06:17.121Z,99735.13
2022-09-20T17:08:47.116Z,99732.81
2022-09-20T17:11:20.521Z,99738.38
2022-09-20T17:13:48.017Z,99733.63
2022-09-20T17:16:17.012Z,99737.69
2022-09-20T17:18:43.955Z,99738.69
2022-09-20T17:21:16.429Z,99749.34
2022-09-20T17:23:50.667Z,99747.84
2022-09-20T17:26:20.387Z,99753.03
2022-09-20T17:28:52.225Z,99749.06
2022-09-20T17:31:24.354Z,99757.25
2022-09-20T17:33:51.912Z,99755.41
2022-09-20T17:36:21.451Z,99760.97
2022-09-20T17:38:53.047Z,99754.41
2022-09-20T17:41:21.165Z,99768.00
2022-09-20T17:43:49.175Z,99761.72
2022-09-20T17:46:23.446Z,99772.97
2022-09-20T17:48:55.766Z,99773.44
2022-09-20T17:51:25.509Z,99778.16
2022-09-20T17:53:53.139Z,99776.00
2022-09-20T17:56:24.670Z,99775.66
2022-09-20T17:58:51.607Z,99773.66
2022-09-20T18:01:20.533Z,99771.50
2022-09-20T18:03:49.119Z,99774.56
2022-09-20T18:06:23.408Z,99773.25
2022-09-20T18:09:16.150Z,99771.06
2022-09-20T18:11:49.726Z,99769.06
2022-09-20T18:14:18.631Z,99771.19
2022-09-20T18:16:45.723Z,99764.88
2022-09-20T18:19:14.200Z,99770.13
2022-09-20T18:21:41.112Z,99774.00
2022-09-20T18:24:10.130Z,99768.41
2022-09-20T18:26:38.234Z,99786.06
2022-09-20T18:29:13.111Z,99782.09
2022-09-20T18:31:45.346Z,99785.00
2022-09-20T18:34:19.656Z,99782.69
2022-09-20T18:36:51.674Z,99781.38
2022-09-20T18:39:32.604Z,99770.81
2022-09-20T18:42:00.164Z,99775.06
2022-09-20T18:44:34.382Z,99779.78
2022-09-20T18:47:03.475Z,99777.59
2022-09-20T18:49:31.463Z,99777.91
2022-09-20T18:51:58.679Z,99782.47
2022-09-20T18:54:25.649Z,99787.84
2022-09-20T18:56:52.845Z,99786.34
2022-09-20T18:59:22.569Z,99791.72
2022-09-20T19:01:49.652Z,99787.75
2022-09-20T19:04:44.370Z,99805.50
2022-09-20T19:07:36.491Z,99796.31
2022-09-20T19:10:06.391Z,99799.22
2022-09-20T19:12:55.193Z,99804.03
2022-09-20T19:15:41.127Z,99798.16
2022-09-20T19:18:46.365Z,99805.47
2022-09-20T19:21:22.662Z,99806.56
2022-09-20T19:23:52.598Z,99813.75
2022-09-20T19:26:23.676Z,99806.19
2022-09-20T19:28:55.409Z,99805.66
2022-09-20T19:31:26.996Z,99811.84
2022-09-20T19:33:56.383Z,99811.19
2022-09-20T19:36:39.679Z,99815.88
2022-09-20T19:39:48.049Z,99808.03
2022-09-20T19:42:48.822Z,99812.88
2022-09-20T19:45:38.475Z,99814.00
2022-09-20T19:48:17.471Z,99811.66
2022-09-20T19:50:46.515Z,99815.22
2022-09-20T19:53:15.211Z,99808.50
2022-09-20T19:55:47.207Z,99806.88
2022-09-20T19:58:15.177Z,99819.22
2022-09-20T20:00:46.480Z,99814.28
2022-09-20T20:03:15.077Z,99824.06
2022-09-20T20:06:07.814Z,99829.56
2022-09-20T20:08:40.649Z,99826.28
2022-09-20T20:11:24.641Z,99832.63
2022-09-20T20:14:03.695Z,99835.50
2022-09-20T20:16:36.566Z,99836.50
2022-09-20T20:19:26.585Z,99840.06
2022-09-20T20:22:32.014Z,99831.69
2022-09-20T20:24:59.033Z,99830.31
2022-09-20T20:27:31.439Z,99833.59
2022-09-20T20:29:58.815Z,99829.22
2022-09-20T20:32:26.327Z,99821.66
2022-09-20T20:34:53.238Z,99831.16
2022-09-20T20:37:24.043Z,99830.44
2022-09-20T20:39:51.385Z,99819.47
2022-09-20T20:42:18.277Z,99835.00
2022-09-20T20:44:45.537Z,99829.78
2022-09-20T20:47:12.465Z,99836.09
2022-09-20T20:49:39.369Z,99834.47
2022-09-20T20:52:06.318Z,99838.84
2022-09-20T20:54:33.295Z,99838.03
2022-09-20T20:57:00.732Z,99837.34
2022-09-20T20:59:27.664Z,99830.63
2022-09-20T21:01:54.573Z,99829.81
2022-09-20T21:04:21.796Z,99828.81
2022-09-20T21:06:50.511Z,99826.75
2022-09-20T21:09:17.526Z,99833.38
2022-09-20T21:12:03.251Z,99828.13
2022-09-20T21:14:33.859Z,99832.56
2022-09-20T21:17:01.907Z,99832.56
2022-09-20T21:19:28.912Z,99830.88
2022-09-20T21:21:55.866Z,99832.81
2022-09-20T21:24:23.578Z,99835.56
2022-09-20T21:26:51.100Z,99836.53
2022-09-20T21:29:19.688Z,99840.25
2022-09-20T21:31:47.172Z,99831.19
2022-09-20T21:34:15.896Z,99836.13
2022-09-20T21:36:44.861Z,99832.84
2022-09-20T21:39:12.280Z,99841.63
2022-09-20T21:41:40.202Z,99823.63
2022-09-20T21:44:10.015Z,99826.25
2022-09-20T21:46:40.366Z,99842.03
2022-09-20T21:49:10.999Z,99829.13
2022-09-20T21:51:39.283Z,99839.56
2022-09-20T21:54:06.374Z,99837.09
2022-09-20T21:56:36.062Z,99828.88
2022-09-20T21:59:04.497Z,99840.94
2022-09-20T22:01:35.094Z,99834.09
2022-09-20T22:04:10.480Z,99838.63
2022-09-20T22:06:39.745Z,99838.78
2022-09-20T22:09:09.573Z,99838.91
2022-09-20T22:11:39.221Z,99845.06
2022-09-20T22:14:07.606Z,99840.00
2022-09-20T22:16:37.963Z,99847.97
2022-09-20T22:19:07.088Z,99840.25
2022-09-20T22:21:39.473Z,99836.97
2022-09-20T22:24:08.808Z,99832.84
2022-09-20T22:26:38.899Z,99844.94
2022-09-20T22:29:09.610Z,99844.09
2022-09-20T22:31:41.470Z,99846.03
2022-09-20T22:34:08.497Z,99853.19
2022-09-20T22:36:40.732Z,99854.28
2022-09-20T22:39:09.626Z,99851.94
2022-09-20T22:41:38.064Z,99857.28
2022-09-20T22:44:05.620Z,99871.03
2022-09-20T22:46:33.399Z,99867.72
2022-09-20T22:49:00.367Z,99866.09
2022-09-20T22:51:33.339Z,99867.84
2022-09-20T22:54:04.400Z,99861.97
2022-09-20T22:56:32.071Z,99858.09
2022-09-20T22:59:03.758Z,99859.63
2022-09-20T23:01:34.028Z,99864.03
2022-09-20T23:04:04.435Z,99873.63
2022-09-20T23:07:02.276Z,99862.50
2022-09-20T23:09:29.248Z,99863.59
2022-09-20T23:11:56.665Z,99861.09
2022-09-20T23:14:23.593Z,99858.66
2022-09-20T23:16:50.927Z,99842.41
2022-09-20T23:19:17.966Z,99854.78
2022-09-20T23:21:45.206Z,99853.41
2022-09-20T23:24:14.230Z,99867.28
2022-09-20T23:26:41.855Z,99866.56
2022-09-20T23:29:12.063Z,99864.09
2022-09-20T23:31:41.092Z,99863.28
2022-09-20T23:34:09.811Z,99857.53
2022-09-20T23:36:39.570Z,99858.34
2022-09-20T23:39:07.788Z,99860.25
2022-09-20T23:41:36.732Z,99863.91
2022-09-20T23:44:06.569Z,99864.06
2022-09-20T23:46:34.488Z,99860.75
2022-09-20T23:49:02.141Z,99867.91
2022-09-20T23:51:30.781Z,99867.06
2022-09-20T23:53:58.394Z,99867.19
2022-09-20T23:56:26.149Z,99864.16
2022-09-20T23:58:53.846Z,99876.94
